createdAt,value
2024-03-08T00:00:22.800Z,100778.03
2024-03-08T00:03:12.284Z,100769.09
2024-03-08T00:05:41.072Z,100772.38
2024-03-08T00:08:11.698Z,100774.41
2024-03-08T00:10:40.687Z,100774.28
2024-03-08T00:13:08.948Z,100771.56
2024-03-08T00:15:37.309Z,100772.06
2024-03-08T00:18:05.741Z,100773.63
2024-03-08T00:20:34.760Z,100766.56
2024-03-08T00:23:02.984Z,100770.16
2024-03-08T00:25:31.464Z,100766.56
2024-03-08T00:28:01.365Z,100771.28
2024-03-08T00:30:29.834Z,100765.47
2024-03-08T00:32:57.999Z,100767.50
2024-03-08T00:35:26.682Z,100764.81
2024-03-08T00:37:57.824Z,100760.09
2024-03-08T00:40:26.200Z,100760.25
2024-03-08T00:42:54.669Z,100757.91
2024-03-08T00:45:24.982Z,100763.72
2024-03-08T00:47:53.214Z,100765.78
2024-03-08T00:50:21.663Z,100764.34
2024-03-08T00:52:49.803Z,100767.16
2024-03-08T00:55:18.640Z,100757.41
2024-03-08T00:57:46.872Z,100761.03
2024-03-08T01:00:15.791Z,100763.41
2024-03-08T01:02:43.906Z,100754.13
2024-03-08T01:05:12.370Z,100756.66
2024-03-08T01:07:40.496Z,100761.47
2024-03-08T01:10:11.285Z,100753.75
2024-03-08T01:12:44.060Z,100752.25
2024-03-08T01:15:12.818Z,100749.84
2024-03-08T01:17:41.017Z,100737.59
2024-03-08T01:20:12.604Z,100741.19
2024-03-08T01:22:42.182Z,100740.09
2024-03-08T01:25:10.666Z,100741.50
2024-03-08T01:27:38.754Z,100735.38
2024-03-08T01:30:07.939Z,100731.63
2024-03-08T01:32:36.107Z,100722.94
2024-03-08T01:35:04.780Z,100728.47
2024-03-08T01:37:32.810Z,100724.53
2024-03-08T01:40:01.284Z,100735.25
2024-03-08T01:42:29.306Z,100724.72
2024-03-08T01:44:58.362Z,100728.16
2024-03-08T01:47:27.152Z,100728.00
2024-03-08T01:49:55.625Z,100723.09
2024-03-08T01:52:25.349Z,100719.50
2024-03-08T01:54:53.760Z,100722.63
2024-03-08T01:57:22.604Z,100727.34
2024-03-08T01:59:52.153Z,100720.56
2024-03-08T02:02:21.320Z,100717.59
2024-03-08T02:04:50.454Z,100717.91
2024-03-08T02:07:18.501Z,100715.88
2024-03-08T02:09:46.782Z,100709.72
2024-03-08T02:12:15.438Z,100710.34
2024-03-08T02:14:45.526Z,100710.97
2024-03-08T02:17:14.354Z,100706.41
2024-03-08T02:19:42.943Z,100714.44
2024-03-08T02:22:11.026Z,100712.69
2024-03-08T02:24:40.162Z,100706.88
2024-03-08T02:27:08.406Z,100711.44
2024-03-08T02:29:38.074Z,100713.28
2024-03-08T02:32:06.177Z,100713.59
2024-03-08T02:34:34.606Z,100712.66
2024-03-08T02:37:03.092Z,100709.53
2024-03-08T02:39:33.447Z,100714.41
2024-03-08T02:42:01.565Z,100707.78
2024-03-08T02:44:30.053Z,100713.63
2024-03-08T02:46:58.105Z,100704.63
2024-03-08T02:49:28.117Z,100709.91
2024-03-08T02:51:58.419Z,100713.38
2024-03-08T02:54:26.710Z,100708.13
2024-03-08T02:56:55.178Z,100708.72
2024-03-08T02:59:24.973Z,100702.31
2024-03-08T03:01:53.045Z,100701.84
2024-03-08T03:04:21.280Z,100702.56
2024-03-08T03:06:49.310Z,100697.38
2024-03-08T03:09:24.789Z,100699.09
2024-03-08T03:11:53.179Z,100703.19
2024-03-08T03:14:23.101Z,100703.63
2024-03-08T03:16:51.302Z,100698.13
2024-03-08T03:19:19.700Z,100701.63
2024-03-08T03:21:48.433Z,100703.47
2024-03-08T03:24:17.712Z,100707.91
2024-03-08T03:26:47.428Z,100704.59
2024-03-08T03:29:16.926Z,100706.53
2024-03-08T03:31:48.145Z,100708.34
2024-03-08T03:34:16.737Z,100711.66
2024-03-08T03:36:46.445Z,100707.88
2024-03-08T03:39:17.745Z,100707.88
2024-03-08T03:41:47.764Z,100693.75
2024-03-08T03:44:16.247Z,100697.69
2024-03-08T03:46:47.400Z,100698.06
2024-03-08T03:49:15.629Z,100691.44
2024-03-08T03:51:43.727Z,100694.75
2024-03-08T03:54:12.486Z,100703.56
2024-03-08T03:56:43.528Z,100698.91
2024-03-08T03:59:11.878Z,100704.00
2024-03-08T04:01:44.638Z,100696.75
2024-03-08T04:04:13.828Z,100694.56
2024-03-08T04:06:41.896Z,100689.69
2024-03-08T04:09:10.813Z,100689.25
2024-03-08T04:11:38.869Z,100690.63
2024-03-08T04:14:07.202Z,100696.03
2024-03-08T04:16:35.153Z,100688.59
2024-03-08T04:19:06.334Z,100689.72
2024-03-08T04:21:34.348Z,100693.19
2024-03-08T04:24:02.692Z,100693.69
2024-03-08T04:26:30.773Z,100688.88
2024-03-08T04:28:58.976Z,100686.25
2024-03-08T04:31:28.181Z,100690.28
2024-03-08T04:33:56.500Z,100692.50
2024-03-08T04:36:26.239Z,100692.81
2024-03-08T04:38:54.583Z,100689.66
2024-03-08T04:41:23.011Z,100693.41
2024-03-08T04:43:51.235Z,100691.56
2024-03-08T04:46:19.394Z,100693.13
2024-03-08T04:48:48.194Z,100687.91
2024-03-08T04:51:16.867Z,100695.00
2024-03-08T04:53:45.435Z,100689.22
2024-03-08T04:56:13.525Z,100697.13
2024-03-08T04:58:41.754Z,100693.06
2024-03-08T05:01:12.191Z,100695.56
2024-03-08T05:03:40.702Z,100691.56
2024-03-08T05:06:09.219Z,100691.94
2024-03-08T05:08:37.940Z,100702.34
2024-03-08T05:11:08.593Z,100693.69
2024-03-08T05:13:36.982Z,100688.06
2024-03-08T05:16:05.332Z,100694.22
2024-03-08T05:18:33.737Z,100698.88
2024-03-08T05:21:01.885Z,100708.00
2024-03-08T05:23:30.688Z,100708.81
2024-03-08T05:25:58.957Z,100705.22
2024-03-08T05:28:27.760Z,100716.66
2024-03-08T05:30:58.253Z,100705.88
2024-03-08T05:33:26.603Z,100710.38
2024-03-08T05:35:55.230Z,100717.22
2024-03-08T05:38:23.920Z,100709.75
2024-03-08T05:40:52.801Z,100709.28
2024-03-08T05:43:21.341Z,100707.69
2024-03-08T05:45:49.378Z,100722.84
2024-03-08T05:48:19.970Z,100723.59
2024-03-08T05:50:48.167Z,100718.44
2024-03-08T05:53:16.695Z,100723.19
2024-03-08T05:55:44.995Z,100717.44
2024-03-08T05:58:13.380Z,100723.81
2024-03-08T06:00:41.351Z,100718.91
2024-03-08T06:03:09.767Z,100717.16
2024-03-08T06:05:38.821Z,100719.97
2024-03-08T06:08:09.277Z,100721.22
2024-03-08T06:10:37.236Z,100724.78
2024-03-08T06:13:05.809Z,100731.31
2024-03-08T06:15:33.918Z,100732.59
2024-03-08T06:18:02.951Z,100743.16
2024-03-08T06:20:30.885Z,100740.97
2024-03-08T06:22:59.150Z,100741.50
2024-03-08T06:25:27.080Z,100741.03
2024-03-08T06:27:55.450Z,100742.69
2024-03-08T06:30:23.781Z,100745.69
2024-03-08T06:32:53.038Z,100741.66
2024-03-08T06:35:21.783Z,100737.06
2024-03-08T08:21:27.604Z,100782.59
2024-03-08T08:23:56.604Z,100778.72
2024-03-08T08:26:27.849Z,100778.16
2024-03-08T08:28:56.941Z,100772.88
2024-03-08T08:31:25.207Z,100777.38
2024-03-08T08:33:59.766Z,100771.31
2024-03-08T08:36:28.061Z,100771.03
2024-03-08T08:38:57.843Z,100769.72
2024-03-08T08:41:26.768Z,100778.38
2024-03-08T08:44:03.646Z,100775.34
2024-03-08T08:46:42.078Z,100771.72
2024-03-08T08:49:16.107Z,100778.31
2024-03-08T08:51:51.469Z,100771.41
2024-03-08T08:54:20.112Z,100768.69
2024-03-08T08:56:51.232Z,100757.66
2024-03-08T08:59:23.581Z,100762.75
2024-03-08T09:01:55.127Z,100747.00
2024-03-08T09:04:24.446Z,100748.19
2024-03-08T09:06:52.547Z,100746.03
2024-03-08T09:09:21.120Z,100753.88
2024-03-08T09:11:50.644Z,100749.19
2024-03-08T09:14:19.480Z,100755.91
2024-03-08T09:16:49.033Z,100755.59
2024-03-08T09:19:18.790Z,100760.16
2024-03-08T09:21:49.496Z,100765.75
2024-03-08T09:24:17.959Z,100764.69
2024-03-08T09:26:46.047Z,100767.88
2024-03-08T09:29:14.599Z,100775.91
2024-03-08T09:31:42.905Z,100770.56
2024-03-08T09:34:14.985Z,100765.81
2024-03-08T09:36:48.322Z,100767.31
2024-03-08T09:39:18.181Z,100774.75
2024-03-08T09:41:49.422Z,100774.44
2024-03-08T09:44:18.024Z,100769.09
2024-03-08T09:46:49.072Z,100770.22
2024-03-08T09:49:18.266Z,100775.41
2024-03-08T09:51:47.506Z,100775.88
2024-03-08T09:54:23.260Z,100782.38
2024-03-08T09:56:53.632Z,100777.56
2024-03-08T09:59:25.134Z,100779.91
2024-03-08T10:01:53.774Z,100778.13
2024-03-08T10:04:23.788Z,100780.72
2024-03-08T10:06:52.192Z,100772.81
2024-03-08T10:09:22.361Z,100781.69
2024-03-08T10:11:50.558Z,100785.13
2024-03-08T10:14:19.645Z,100781.97
2024-03-08T10:16:48.363Z,100780.72
2024-03-08T10:19:18.486Z,100785.78
2024-03-08T10:21:50.733Z,100784.03
2024-03-08T10:24:19.291Z,100783.84
2024-03-08T10:26:47.471Z,100788.91
2024-03-08T10:29:18.998Z,100788.44
2024-03-08T10:31:47.490Z,100788.59
2024-03-08T10:34:16.144Z,100782.13
2024-03-08T10:36:45.658Z,100789.69
2024-03-08T10:39:26.516Z,100787.78
2024-03-08T10:42:19.836Z,100790.31
2024-03-08T10:45:04.674Z,100791.25
2024-03-08T10:47:42.481Z,100789.31
2024-03-08T10:50:26.538Z,100796.63
2024-03-08T10:52:54.915Z,100796.47
2024-03-08T10:55:24.859Z,100798.28
2024-03-08T10:57:53.339Z,100798.56
2024-03-08T11:00:28.208Z,100795.97
2024-03-08T11:02:56.654Z,100800.22
2024-03-08T11:05:46.378Z,100797.78
2024-03-08T11:08:15.941Z,100803.94
2024-03-08T11:10:54.162Z,100793.84
2024-03-08T11:13:46.672Z,100784.72
2024-03-08T11:16:27.266Z,100789.91
2024-03-08T11:18:55.979Z,100786.31
2024-03-08T11:21:27.895Z,100780.91
2024-03-08T11:24:04.835Z,100781.56
2024-03-08T11:26:34.008Z,100768.34
2024-03-08T11:29:30.500Z,100774.56
2024-03-08T11:32:29.447Z,100772.25
2024-03-08T11:34:57.880Z,100775.47
2024-03-08T11:37:31.687Z,100776.50
2024-03-08T11:40:03.139Z,100773.84
2024-03-08T11:42:32.735Z,100776.25
2024-03-08T11:45:00.892Z,100763.00
2024-03-08T11:47:30.930Z,100761.16
2024-03-08T11:50:00.776Z,100764.78
2024-03-08T11:52:31.029Z,100759.38
2024-03-08T11:54:59.750Z,100755.25
2024-03-08T11:57:30.034Z,100750.34
2024-03-08T11:59:58.374Z,100746.00
2024-03-08T12:02:27.300Z,100743.84
2024-03-08T12:05:01.814Z,100736.16
2024-03-08T12:07:33.669Z,100734.81
2024-03-08T12:10:23.538Z,100733.78
2024-03-08T12:13:00.037Z,100736.06
2024-03-08T12:15:30.122Z,100730.41
2024-03-08T12:18:00.108Z,100734.09
2024-03-08T12:20:33.393Z,100730.25
2024-03-08T12:23:01.891Z,100724.59
2024-03-08T12:25:37.697Z,100713.69
2024-03-08T12:28:15.148Z,100717.19
2024-03-08T12:30:52.447Z,100716.34
2024-03-08T12:33:21.310Z,100708.44
2024-03-08T12:35:57.509Z,100717.44
2024-03-08T12:38:29.487Z,100704.84
2024-03-08T12:41:02.878Z,100702.97
2024-03-08T12:43:32.820Z,100700.84
2024-03-08T12:46:01.608Z,100702.16
2024-03-08T12:48:30.158Z,100698.25
2024-03-08T12:50:58.365Z,100693.09
2024-03-08T12:53:30.272Z,100698.09
2024-03-08T12:55:58.760Z,100697.59
2024-03-08T12:58:27.702Z,100700.19
2024-03-08T13:00:56.111Z,100695.47
2024-03-08T13:03:24.619Z,100691.09
2024-03-08T13:05:53.171Z,100695.28
2024-03-08T13:08:23.225Z,100691.47
2024-03-08T13:10:52.503Z,100690.22
2024-03-08T13:13:22.208Z,100688.63
2024-03-08T13:15:55.307Z,100691.16
2024-03-08T13:18:27.648Z,100686.13
2024-03-08T13:20:59.077Z,100681.22
2024-03-08T13:23:27.521Z,100681.63
2024-03-08T13:25:56.055Z,100666.16
2024-03-08T13:28:29.319Z,100666.78
2024-03-08T13:31:04.479Z,100663.78
2024-03-08T13:33:33.323Z,100665.91
2024-03-08T13:36:05.405Z,100668.25
2024-03-08T13:38:35.319Z,100663.31
2024-03-08T13:41:04.434Z,100668.00
2024-03-08T13:43:36.056Z,100661.38
2024-03-08T13:46:05.895Z,100662.00
2024-03-08T13:48:38.846Z,100662.63
2024-03-08T13:51:13.705Z,100655.72
2024-03-08T13:53:42.166Z,100663.06
2024-03-08T13:56:12.312Z,100654.78
2024-03-08T13:58:42.254Z,100651.25
2024-03-08T14:01:13.759Z,100649.28
2024-03-08T14:03:43.222Z,100645.69
2024-03-08T14:08:54.903Z,100629.75
2024-03-08T14:11:25.425Z,100638.63
2024-03-08T14:13:55.299Z,100635.88
2024-03-08T14:16:23.664Z,100630.97
2024-03-08T14:18:52.470Z,100615.16
2024-03-08T14:21:20.851Z,100614.31
2024-03-08T14:23:50.350Z,100618.09
2024-03-08T14:26:18.597Z,100611.25
2024-03-08T14:28:47.566Z,100601.81
2024-03-08T14:31:20.204Z,100600.28
2024-03-08T14:33:51.658Z,100603.00
2024-03-08T14:36:25.068Z,100591.25
2024-03-08T14:38:54.049Z,100595.22
2024-03-08T14:41:23.647Z,100591.78
2024-03-08T14:43:54.714Z,100596.56
2024-03-08T14:46:24.851Z,100592.78
2024-03-08T14:48:54.368Z,100581.53
2024-03-08T14:51:23.994Z,100569.78
2024-03-08T14:53:52.660Z,100575.78
2024-03-08T14:56:20.781Z,100580.84
2024-03-08T14:58:53.236Z,100581.72
2024-03-08T15:01:29.635Z,100573.53
2024-03-08T15:04:02.567Z,100577.00
2024-03-08T15:06:32.765Z,100575.81
2024-03-08T15:09:01.415Z,100578.16
2024-03-08T15:11:30.883Z,100573.13
2024-03-08T15:13:59.783Z,100585.88
2024-03-08T15:16:28.027Z,100587.81
2024-03-08T15:18:56.544Z,100595.41
2024-03-08T15:21:27.348Z,100589.41
2024-03-08T15:23:56.015Z,100583.38
2024-03-08T15:26:27.352Z,100580.34
2024-03-08T15:28:57.062Z,100594.56
2024-03-08T15:31:28.797Z,100591.81
2024-03-08T15:34:02.399Z,100588.69
2024-03-08T15:36:34.751Z,100580.00
2024-03-08T15:39:04.345Z,100583.50
2024-03-08T15:41:33.030Z,100587.59
2024-03-08T15:44:01.706Z,100574.31
2024-03-08T15:46:30.337Z,100584.28
2024-03-08T15:48:59.220Z,100587.16
2024-03-08T15:51:27.718Z,100591.94
2024-03-08T15:53:57.925Z,100608.81
2024-03-08T15:56:27.455Z,100602.72
2024-03-08T15:58:56.311Z,100605.66
2024-03-08T16:01:26.328Z,100599.78
2024-03-08T16:03:56.285Z,100596.94
2024-03-08T16:06:26.165Z,100595.59
2024-03-08T16:08:54.981Z,100593.69
2024-03-08T16:11:24.482Z,100595.38
2024-03-08T16:13:53.378Z,100602.13
2024-03-08T16:16:23.420Z,100591.59
2024-03-08T16:18:52.750Z,100593.19
2024-03-08T16:21:24.168Z,100592.38
2024-03-08T16:23:54.569Z,100594.28
2024-03-08T16:26:25.829Z,100591.28
2024-03-08T16:28:56.399Z,100592.56
2024-03-08T16:31:24.752Z,100590.81
2024-03-08T16:33:53.432Z,100596.97
2024-03-08T16:36:21.684Z,100593.50
2024-03-08T16:38:50.328Z,100589.59
2024-03-08T16:41:19.039Z,100592.22
2024-03-08T16:43:47.931Z,100585.19
2024-03-08T16:46:16.427Z,100587.06
2024-03-08T16:48:46.224Z,100580.16
2024-03-08T16:51:14.899Z,100582.19
2024-03-08T16:53:44.361Z,100580.16
2024-03-08T16:56:14.300Z,100587.22
2024-03-08T16:58:44.155Z,100582.38
2024-03-08T17:01:12.925Z,100587.88
2024-03-08T17:03:48.339Z,100572.94
2024-03-08T17:06:24.892Z,100572.47
2024-03-08T17:08:53.926Z,100564.59
2024-03-08T17:11:22.833Z,100572.00
2024-03-08T17:13:51.488Z,100568.22
2024-03-08T17:16:26.482Z,100557.22
2024-03-08T17:18:56.971Z,100554.41
2024-03-08T17:21:25.767Z,100558.66
2024-03-08T17:23:54.172Z,100554.25
2024-03-08T17:26:22.315Z,100550.47
2024-03-08T17:28:51.295Z,100555.66
2024-03-08T17:31:19.910Z,100554.41
2024-03-08T17:33:49.073Z,100561.16
2024-03-08T17:36:17.911Z,100552.81
2024-03-08T17:38:49.998Z,100553.31
2024-03-08T17:41:24.798Z,100562.25
2024-03-08T17:43:54.752Z,100559.72
2024-03-08T17:46:23.114Z,100559.41
2024-03-08T17:48:55.467Z,100562.22
2024-03-08T17:51:23.729Z,100563.66
2024-03-08T17:53:52.717Z,100562.72
2024-03-08T17:56:21.113Z,100565.41
2024-03-08T17:58:52.452Z,100563.66
2024-03-08T18:01:21.283Z,100554.41
2024-03-08T18:03:50.867Z,100551.25
2024-03-08T18:06:19.028Z,100550.31
2024-03-08T18:08:47.448Z,100555.34
2024-03-08T18:11:16.736Z,100556.13
2024-03-08T18:13:45.496Z,100560.97
2024-03-08T18:16:16.264Z,100564.44
2024-03-08T18:18:46.804Z,100557.22
2024-03-08T18:21:15.487Z,100558.81
2024-03-08T18:23:46.297Z,100549.50
2024-03-08T18:26:14.622Z,100557.38
2024-03-08T18:28:46.619Z,100551.09
2024-03-08T18:31:15.382Z,100548.72
2024-03-08T18:33:46.165Z,100547.78
2024-03-08T18:36:16.463Z,100551.25
2024-03-08T18:38:47.320Z,100544.16
2024-03-08T18:41:17.364Z,100548.56
2024-03-08T18:43:46.219Z,100558.16
2024-03-08T18:46:14.560Z,100560.84
2024-03-08T18:48:43.369Z,100558.16
2024-03-08T18:51:11.876Z,100556.91
2024-03-08T18:53:42.978Z,100561.78
2024-03-08T18:56:11.585Z,100563.19
2024-03-08T18:58:46.160Z,100563.34
2024-03-08T19:01:17.583Z,100565.56
2024-03-08T19:03:47.416Z,100565.06
2024-03-08T19:06:19.666Z,100552.34
2024-03-08T19:08:50.193Z,100561.47
2024-03-08T19:11:18.851Z,100558.16
2024-03-08T19:13:47.984Z,100558.63
2024-03-08T19:16:18.314Z,100560.19
2024-03-08T19:18:46.994Z,100560.19
2024-03-08T19:21:15.296Z,100553.09
2024-03-08T19:23:45.653Z,100553.09
2024-03-08T19:26:14.190Z,100554.22
2024-03-08T19:28:42.994Z,100551.56
2024-03-08T19:31:11.249Z,100554.84
2024-03-08T19:33:41.712Z,100552.50
2024-03-08T19:36:14.066Z,100559.25
2024-03-08T19:38:43.801Z,100557.41
2024-03-08T19:41:13.711Z,100554.84
2024-03-08T19:43:43.007Z,100551.88
2024-03-08T19:46:13.446Z,100549.66
2024-03-08T19:48:43.622Z,100543.38
2024-03-08T19:51:14.946Z,100559.25
2024-03-08T19:53:43.621Z,100558.00
2024-03-08T19:56:11.867Z,100550.94
2024-03-08T19:58:40.536Z,100550.78
2024-03-08T20:01:11.037Z,100559.28
2024-03-08T20:03:40.926Z,100555.50
2024-03-08T20:06:09.206Z,100551.09
2024-03-08T20:08:42.447Z,100550.63
2024-03-08T20:11:11.889Z,100553.75
2024-03-08T20:13:42.159Z,100555.50
2024-03-08T20:16:14.207Z,100559.75
2024-03-08T20:18:44.299Z,100560.19
2024-03-08T20:21:12.591Z,100550.63
2024-03-08T20:23:42.805Z,100555.47
2024-03-08T20:26:12.646Z,100554.22
2024-03-08T20:28:43.697Z,100552.97
2024-03-08T20:31:14.020Z,100553.13
2024-03-08T20:33:44.885Z,100555.47
2024-03-08T20:36:13.413Z,100558.16
2024-03-08T20:38:43.682Z,100563.16
2024-03-08T20:41:13.126Z,100563.75
2024-03-08T20:43:43.178Z,100561.84
2024-03-08T20:46:12.736Z,100565.66
2024-03-08T20:48:46.814Z,100569.78
2024-03-08T20:51:15.152Z,100553.31
2024-03-08T20:53:44.497Z,100549.06
2024-03-08T20:56:13.032Z,100538.03
2024-03-08T20:58:42.770Z,100538.03
2024-03-08T21:01:11.747Z,100535.69
2024-03-08T21:03:40.933Z,100538.34
2024-03-08T21:06:09.684Z,100536.44
2024-03-08T21:08:39.997Z,100533.34
2024-03-08T21:11:11.486Z,100535.69
2024-03-08T21:13:40.228Z,100530.03
2024-03-08T21:16:08.587Z,100532.03
2024-03-08T21:18:40.287Z,100534.22
2024-03-08T21:21:08.645Z,100531.00
2024-03-08T21:23:37.640Z,100519.91
2024-03-08T21:26:10.602Z,100526.31
2024-03-08T21:28:39.836Z,100526.75
2024-03-08T21:31:08.298Z,100525.09
2024-03-08T21:33:37.723Z,100517.44
2024-03-08T21:36:09.478Z,100519.81
2024-03-08T21:38:38.196Z,100512.59
2024-03-08T21:41:09.881Z,100513.22
2024-03-08T21:43:38.891Z,100522.09
2024-03-08T21:46:07.107Z,100523.75
2024-03-08T21:48:36.163Z,100515.44
2024-03-08T21:51:04.600Z,100515.94
2024-03-08T21:53:35.732Z,100497.47
2024-03-08T21:56:06.466Z,100503.94
2024-03-08T21:58:35.660Z,100501.88
2024-03-08T22:01:06.378Z,100507.13
2024-03-08T22:03:37.228Z,100506.31
2024-03-08T22:06:12.003Z,100497.28
2024-03-08T22:08:43.509Z,100503.22
2024-03-08T22:11:14.643Z,100506.66
2024-03-08T22:13:47.180Z,100502.88
2024-03-08T22:16:15.671Z,100497.84
2024-03-08T22:18:46.392Z,100489.16
2024-03-08T22:21:15.243Z,100476.63
2024-03-08T22:23:44.202Z,100472.59
2024-03-08T22:26:14.462Z,100458.34
2024-03-08T22:28:44.932Z,100452.88
2024-03-08T22:31:13.346Z,100450.66
2024-03-08T22:33:42.260Z,100449.75
2024-03-08T22:36:10.747Z,100439.56
2024-03-08T22:38:39.336Z,100436.59
2024-03-08T22:41:11.772Z,100446.31
2024-03-08T22:43:42.678Z,100438.78
2024-03-08T22:46:12.313Z,100441.63
2024-03-08T22:48:42.854Z,100443.97
2024-03-08T22:51:13.543Z,100425.75
2024-03-08T22:53:43.091Z,100433.28
2024-03-08T22:56:12.623Z,100426.84
2024-03-08T22:58:45.601Z,100424.97
2024-03-08T23:01:18.379Z,100424.03
2024-03-08T23:03:49.157Z,100421.06
2024-03-08T23:06:22.695Z,100419.13
2024-03-08T23:08:52.517Z,100416.16
2024-03-08T23:11:23.725Z,100416.94
2024-03-08T23:13:53.218Z,100413.66
2024-03-08T23:16:22.035Z,100414.44
2024-03-08T23:18:51.550Z,100411.16
2024-03-08T23:21:20.986Z,100411.16
2024-03-08T23:23:51.866Z,100409.72
2024-03-08T23:26:20.282Z,100409.56
2024-03-08T23:28:49.136Z,100407.22
2024-03-08T23:31:17.508Z,100409.25
2024-03-08T23:33:48.432Z,100401.88
2024-03-08T23:36:17.353Z,100401.91
2024-03-08T23:38:46.457Z,100400.81
2024-03-08T23:41:15.817Z,100396.56
2024-03-08T23:43:44.953Z,100399.22
2024-03-08T23:46:13.243Z,100391.81
2024-03-08T23:48:42.283Z,100392.75
2024-03-08T23:51:11.630Z,100396.22
2024-03-08T23:53:40.213Z,100395.25
2024-03-08T23:56:10.139Z,100390.72
2024-03-08T23:58:38.932Z,100394.66
